sensor_id;sensor_type;location;lat;lon;timestamp;temperature;humidity
50570;DHT22;36525;49.398;7.614;2022-09-09T00:01:21;15.00;99.90
50570;DHT22;36525;49.398;7.614;2022-09-09T00:03:59;14.90;99.90
50570;DHT22;36525;49.398;7.614;2022-09-09T00:06:53;14.90;99.90
50570;DHT22;36525;49.398;7.614;2022-09-09T00:10:09;14.90;99.90
50570;DHT22;36525;49.398;7.614;2022-09-09T00:15:49;14.80;99.90
50570;DHT22;36525;49.398;7.614;2022-09-09T00:21:15;14.80;99.90
50570;DHT22;36525;49.398;7.614;2022-09-09T00:23:53;14.70;99.90
50570;DHT22;36525;49.398;7.614;2022-09-09T00:26:35;14.70;99.90
50570;DHT22;36525;49.398;7.614;2022-09-09T00:31:46;14.70;99.90
50570;DHT22;36525;49.398;7.614;2022-09-09T00:34:21;14.70;99.90
50570;DHT22;36525;49.398;7.614;2022-09-09T00:36:52;14.60;99.90
50570;DHT22;36525;49.398;7.614;2022-09-09T00:39:39;14.70;99.90
50570;DHT22;36525;49.398;7.614;2022-09-09T00:42:43;14.70;99.90
50570;DHT22;36525;49.398;7.614;2022-09-09T00:45:19;14.70;99.90
50570;DHT22;36525;49.398;7.614;2022-09-09T00:48:10;14.80;99.90
50570;DHT22;36525;49.398;7.614;2022-09-09T00:50:53;14.70;99.90
50570;DHT22;36525;49.398;7.614;2022-09-09T00:53:57;14.70;99.90
50570;DHT22;36525;49.398;7.614;2022-09-09T00:56:51;14.80;99.90
50570;DHT22;36525;49.398;7.614;2022-09-09T00:59:37;14.80;99.90
50570;DHT22;36525;49.398;7.614;2022-09-09T01:05:11;14.80;99.90
50570;DHT22;36525;49.398;7.614;2022-09-09T01:07:44;14.80;99.90
50570;DHT22;36525;49.398;7.614;2022-09-09T01:10:47;14.80;99.90
50570;DHT22;36525;49.398;7.614;2022-09-09T01:13:24;14.80;99.90
50570;DHT22;36525;49.398;7.614;2022-09-09T01:15:53;14.90;99.90
50570;DHT22;36525;49.398;7.614;2022-09-09T01:18:32;14.90;99.90
50570;DHT22;36525;49.398;7.614;2022-09-09T01:26:46;14.90;99.90
50570;DHT22;36525;49.398;7.614;2022-09-09T01:29:16;14.90;99.90
50570;DHT22;36525;49.398;7.614;2022-09-09T01:32:35;14.90;99.90
50570;DHT22;36525;49.398;7.614;2022-09-09T01:35:09;14.90;99.90
50570;DHT22;36525;49.398;7.614;2022-09-09T01:37:41;14.90;99.90
50570;DHT22;36525;49.398;7.614;2022-09-09T01:40:08;14.80;99.90
50570;DHT22;36525;49.398;7.614;2022-09-09T01:42:35;14.80;99.90
50570;DHT22;36525;49.398;7.614;2022-09-09T01:45:03;14.70;99.90
50570;DHT22;36525;49.398;7.614;2022-09-09T01:47:30;14.70;99.90
50570;DHT22;36525;49.398;7.614;2022-09-09T01:49:58;14.70;99.90
50570;DHT22;36525;49.398;7.614;2022-09-09T01:52:26;14.80;99.90
50570;DHT22;36525;49.398;7.614;2022-09-09T01:54:53;14.80;99.90
50570;DHT22;36525;49.398;7.614;2022-09-09T01:57:50;14.70;99.90
50570;DHT22;36525;49.398;7.614;2022-09-09T02:00:20;14.80;99.90
50570;DHT22;36525;49.398;7.614;2022-09-09T02:03:21;14.80;99.90
50570;DHT22;36525;49.398;7.614;2022-09-09T02:06:00;14.80;99.90
50570;DHT22;36525;49.398;7.614;2022-09-09T02:11:13;14.80;99.90
50570;DHT22;36525;49.398;7.614;2022-09-09T02:13:43;14.80;99.90
50570;DHT22;36525;49.398;7.614;2022-09-09T02:19:01;14.70;99.90
50570;DHT22;36525;49.398;7.614;2022-09-09T02:21:31;14.70;99.90
50570;DHT22;36525;49.398;7.614;2022-09-09T02:24:04;14.70;99.90
50570;DHT22;36525;49.398;7.614;2022-09-09T02:26:40;14.70;99.90
50570;DHT22;36525;49.398;7.614;2022-09-09T02:29:17;14.70;99.90
50570;DHT22;36525;49.398;7.614;2022-09-09T02:31:47;14.70;99.90
50570;DHT22;36525;49.398;7.614;2022-09-09T02:34:18;14.70;99.90
50570;DHT22;36525;49.398;7.614;2022-09-09T02:36:48;14.70;99.90
50570;DHT22;36525;49.398;7.614;2022-09-09T02:39:16;14.70;99.90
50570;DHT22;36525;49.398;7.614;2022-09-09T02:41:43;14.60;99.90
50570;DHT22;36525;49.398;7.614;2022-09-09T02:44:12;14.60;99.90
50570;DHT22;36525;49.398;7.614;2022-09-09T02:52:01;14.60;99.90
50570;DHT22;36525;49.398;7.614;2022-09-09T02:54:31;14.50;99.90
50570;DHT22;36525;49.398;7.614;2022-09-09T02:57:28;14.40;99.90
50570;DHT22;36525;49.398;7.614;2022-09-09T02:59:58;14.40;99.90
50570;DHT22;36525;49.398;7.614;2022-09-09T03:02:25;14.30;99.90
50570;DHT22;36525;49.398;7.614;2022-09-09T03:04:52;14.30;99.90
50570;DHT22;36525;49.398;7.614;2022-09-09T03:07:19;14.30;99.90
50570;DHT22;36525;49.398;7.614;2022-09-09T03:09:47;14.30;99.90
50570;DHT22;36525;49.398;7.614;2022-09-09T03:12:14;14.30;99.90
50570;DHT22;36525;49.398;7.614;2022-09-09T03:14:41;14.20;99.90
50570;DHT22;36525;49.398;7.614;2022-09-09T03:17:08;14.20;99.90
50570;DHT22;36525;49.398;7.614;2022-09-09T03:19:35;14.20;99.90
50570;DHT22;36525;49.398;7.614;2022-09-09T03:22:02;14.20;99.90
50570;DHT22;36525;49.398;7.614;2022-09-09T03:24:30;14.10;99.90
50570;DHT22;36525;49.398;7.614;2022-09-09T03:26:57;14.10;99.90
50570;DHT22;36525;49.398;7.614;2022-09-09T03:29:24;14.10;99.90
50570;DHT22;36525;49.398;7.614;2022-09-09T03:31:51;14.10;99.90
50570;DHT22;36525;49.398;7.614;2022-09-09T03:34:18;14.10;99.90
50570;DHT22;36525;49.398;7.614;2022-09-09T03:36:45;14.10;99.90
50570;DHT22;36525;49.398;7.614;2022-09-09T03:39:12;14.00;99.90
50570;DHT22;36525;49.398;7.614;2022-09-09T03:41:40;14.00;99.90
50570;DHT22;36525;49.398;7.614;2022-09-09T03:44:07;14.00;99.90
50570;DHT22;36525;49.398;7.614;2022-09-09T03:46:34;14.00;99.90
50570;DHT22;36525;49.398;7.614;2022-09-09T03:49:01;14.00;99.90
50570;DHT22;36525;49.398;7.614;2022-09-09T03:51:28;14.00;99.90
50570;DHT22;36525;49.398;7.614;2022-09-09T03:53:55;13.90;99.90
50570;DHT22;36525;49.398;7.614;2022-09-09T03:56:24;13.90;99.90
50570;DHT22;36525;49.398;7.614;2022-09-09T03:58:51;13.90;99.90
50570;DHT22;36525;49.398;7.614;2022-09-09T04:01:18;13.90;99.90
50570;DHT22;36525;49.398;7.614;2022-09-09T04:03:45;13.80;99.90
50570;DHT22;36525;49.398;7.614;2022-09-09T04:06:16;13.80;99.90
50570;DHT22;36525;49.398;7.614;2022-09-09T04:08:44;13.80;99.90
50570;DHT22;36525;49.398;7.614;2022-09-09T04:11:11;13.80;99.90
50570;DHT22;36525;49.398;7.614;2022-09-09T04:13:38;13.80;99.90
50570;DHT22;36525;49.398;7.614;2022-09-09T04:16:06;13.80;99.90
50570;DHT22;36525;49.398;7.614;2022-09-09T04:18:33;13.80;99.90
50570;DHT22;36525;49.398;7.614;2022-09-09T04:21:01;13.80;99.90
50570;DHT22;36525;49.398;7.614;2022-09-09T04:23:30;13.80;99.90
50570;DHT22;36525;49.398;7.614;2022-09-09T04:25:58;13.90;99.90
50570;DHT22;36525;49.398;7.614;2022-09-09T04:28:28;13.90;99.90
50570;DHT22;36525;49.398;7.614;2022-09-09T04:31:03;13.90;99.90
50570;DHT22;36525;49.398;7.614;2022-09-09T04:33:38;13.90;99.90
50570;DHT22;36525;49.398;7.614;2022-09-09T04:36:06;13.90;99.90
50570;DHT22;36525;49.398;7.614;2022-09-09T04:38:34;13.90;99.90
50570;DHT22;36525;49.398;7.614;2022-09-09T04:41:02;13.90;99.90
50570;DHT22;36525;49.398;7.614;2022-09-09T04:43:29;13.90;99.90
50570;DHT22;36525;49.398;7.614;2022-09-09T04:45:57;13.90;99.90
50570;DHT22;36525;49.398;7.614;2022-09-09T04:48:26;13.80;99.90
50570;DHT22;36525;49.398;7.614;2022-09-09T04:51:02;13.80;99.90
50570;DHT22;36525;49.398;7.614;2022-09-09T04:53:32;13.80;99.90
50570;DHT22;36525;49.398;7.614;2022-09-09T04:56:11;13.80;99.90
50570;DHT22;36525;49.398;7.614;2022-09-09T04:58:40;13.80;99.90
50570;DHT22;36525;49.398;7.614;2022-09-09T05:01:13;13.90;99.90
50570;DHT22;36525;49.398;7.614;2022-09-09T05:03:41;13.90;99.90
50570;DHT22;36525;49.398;7.614;2022-09-09T05:06:11;14.00;99.90
50570;DHT22;36525;49.398;7.614;2022-09-09T05:08:40;14.00;99.90
50570;DHT22;36525;49.398;7.614;2022-09-09T05:11:26;14.00;99.90
50570;DHT22;36525;49.398;7.614;2022-09-09T05:13:56;14.10;99.90
50570;DHT22;36525;49.398;7.614;2022-09-09T05:16:26;14.20;99.90
50570;DHT22;36525;49.398;7.614;2022-09-09T05:18:53;14.30;99.90
50570;DHT22;36525;49.398;7.614;2022-09-09T05:21:22;14.40;99.90
50570;DHT22;36525;49.398;7.614;2022-09-09T05:23:51;14.40;99.90
50570;DHT22;36525;49.398;7.614;2022-09-09T05:26:20;14.60;99.90
50570;DHT22;36525;49.398;7.614;2022-09-09T05:28:48;14.60;99.90
50570;DHT22;36525;49.398;7.614;2022-09-09T05:31:17;14.60;99.90
50570;DHT22;36525;49.398;7.614;2022-09-09T05:33:46;14.70;99.90
50570;DHT22;36525;49.398;7.614;2022-09-09T05:36:19;14.70;99.90
50570;DHT22;36525;49.398;7.614;2022-09-09T05:38:47;14.80;99.90
50570;DHT22;36525;49.398;7.614;2022-09-09T05:41:14;14.70;99.90
50570;DHT22;36525;49.398;7.614;2022-09-09T05:43:42;14.70;99.90
50570;DHT22;36525;49.398;7.614;2022-09-09T05:46:18;14.80;99.90
50570;DHT22;36525;49.398;7.614;2022-09-09T05:48:47;14.80;99.90
50570;DHT22;36525;49.398;7.614;2022-09-09T05:51:19;14.80;99.90
50570;DHT22;36525;49.398;7.614;2022-09-09T05:53:48;14.80;99.90
50570;DHT22;36525;49.398;7.614;2022-09-09T05:56:23;14.80;99.90
50570;DHT22;36525;49.398;7.614;2022-09-09T05:58:52;14.70;99.90
50570;DHT22;36525;49.398;7.614;2022-09-09T06:01:27;14.70;99.90
50570;DHT22;36525;49.398;7.614;2022-09-09T06:03:56;14.70;99.90
50570;DHT22;36525;49.398;7.614;2022-09-09T06:06:26;14.60;99.90
50570;DHT22;36525;49.398;7.614;2022-09-09T06:09:04;14.50;99.90
50570;DHT22;36525;49.398;7.614;2022-09-09T06:11:38;14.40;99.90
50570;DHT22;36525;49.398;7.614;2022-09-09T06:14:06;14.50;99.90
50570;DHT22;36525;49.398;7.614;2022-09-09T06:16:34;14.40;99.90
50570;DHT22;36525;49.398;7.614;2022-09-09T06:19:02;14.50;99.90
50570;DHT22;36525;49.398;7.614;2022-09-09T06:21:34;14.60;99.90
50570;DHT22;36525;49.398;7.614;2022-09-09T06:24:05;14.60;99.90
50570;DHT22;36525;49.398;7.614;2022-09-09T06:26:35;14.70;99.90
50570;DHT22;36525;49.398;7.614;2022-09-09T06:29:04;14.70;99.90
50570;DHT22;36525;49.398;7.614;2022-09-09T06:31:33;14.80;99.90
50570;DHT22;36525;49.398;7.614;2022-09-09T06:34:01;14.80;99.90
50570;DHT22;36525;49.398;7.614;2022-09-09T06:36:30;14.90;99.90
50570;DHT22;36525;49.398;7.614;2022-09-09T06:38:59;15.00;99.90
50570;DHT22;36525;49.398;7.614;2022-09-09T06:41:28;15.00;99.90
50570;DHT22;36525;49.398;7.614;2022-09-09T06:43:56;15.20;99.90
50570;DHT22;36525;49.398;7.614;2022-09-09T06:46:25;15.50;99.90
50570;DHT22;36525;49.398;7.614;2022-09-09T06:48:58;15.60;99.90
50570;DHT22;36525;49.398;7.614;2022-09-09T06:51:30;15.70;99.90
50570;DHT22;36525;49.398;7.614;2022-09-09T06:54:02;15.70;99.90
50570;DHT22;36525;49.398;7.614;2022-09-09T06:56:35;15.90;99.90
50570;DHT22;36525;49.398;7.614;2022-09-09T06:59:04;15.90;99.90
50570;DHT22;36525;49.398;7.614;2022-09-09T07:01:37;15.90;99.90
50570;DHT22;36525;49.398;7.614;2022-09-09T07:04:08;15.90;99.90
50570;DHT22;36525;49.398;7.614;2022-09-09T07:06:39;15.80;99.90
50570;DHT22;36525;49.398;7.614;2022-09-09T07:09:14;15.80;99.90
50570;DHT22;36525;49.398;7.614;2022-09-09T07:11:44;15.80;99.90
50570;DHT22;36525;49.398;7.614;2022-09-09T07:14:13;15.90;99.90
50570;DHT22;36525;49.398;7.614;2022-09-09T07:16:44;16.00;99.90
50570;DHT22;36525;49.398;7.614;2022-09-09T07:19:13;16.00;99.90
50570;DHT22;36525;49.398;7.614;2022-09-09T07:21:41;16.00;99.90
50570;DHT22;36525;49.398;7.614;2022-09-09T07:24:09;16.10;99.90
50570;DHT22;36525;49.398;7.614;2022-09-09T07:26:38;16.10;99.90
50570;DHT22;36525;49.398;7.614;2022-09-09T07:29:07;16.30;99.90
50570;DHT22;36525;49.398;7.614;2022-09-09T07:31:36;16.30;99.90
50570;DHT22;36525;49.398;7.614;2022-09-09T07:34:05;16.30;99.90
50570;DHT22;36525;49.398;7.614;2022-09-09T07:36:37;16.40;99.90
50570;DHT22;36525;49.398;7.614;2022-09-09T07:39:07;16.40;99.90
50570;DHT22;36525;49.398;7.614;2022-09-09T07:41:46;16.40;99.90
50570;DHT22;36525;49.398;7.614;2022-09-09T07:44:16;16.40;99.90
50570;DHT22;36525;49.398;7.614;2022-09-09T07:46:45;16.50;99.90
50570;DHT22;36525;49.398;7.614;2022-09-09T07:49:12;16.60;99.90
50570;DHT22;36525;49.398;7.614;2022-09-09T07:51:42;16.60;99.90
50570;DHT22;36525;49.398;7.614;2022-09-09T07:54:12;16.60;99.90
50570;DHT22;36525;49.398;7.614;2022-09-09T07:56:41;16.60;99.90
50570;DHT22;36525;49.398;7.614;2022-09-09T07:59:09;16.60;99.90
50570;DHT22;36525;49.398;7.614;2022-09-09T08:01:47;16.70;99.90
50570;DHT22;36525;49.398;7.614;2022-09-09T08:04:17;16.50;99.90
50570;DHT22;36525;49.398;7.614;2022-09-09T08:06:57;16.40;99.90
50570;DHT22;36525;49.398;7.614;2022-09-09T08:09:26;16.60;99.90
50570;DHT22;36525;49.398;7.614;2022-09-09T08:11:56;16.50;99.90
50570;DHT22;36525;49.398;7.614;2022-09-09T08:14:23;16.40;99.90
50570;DHT22;36525;49.398;7.614;2022-09-09T08:16:50;16.40;99.90
50570;DHT22;36525;49.398;7.614;2022-09-09T08:19:20;16.60;99.90
50570;DHT22;36525;49.398;7.614;2022-09-09T08:21:47;16.80;99.90
50570;DHT22;36525;49.398;7.614;2022-09-09T08:24:15;16.80;99.90
50570;DHT22;36525;49.398;7.614;2022-09-09T08:26:45;16.90;99.90
50570;DHT22;36525;49.398;7.614;2022-09-09T08:29:13;16.90;99.90
50570;DHT22;36525;49.398;7.614;2022-09-09T08:31:49;17.20;99.90
50570;DHT22;36525;49.398;7.614;2022-09-09T08:34:18;17.40;99.90
50570;DHT22;36525;49.398;7.614;2022-09-09T08:36:49;17.40;99.90
50570;DHT22;36525;49.398;7.614;2022-09-09T08:39:19;17.40;99.90
50570;DHT22;36525;49.398;7.614;2022-09-09T08:47:43;17.90;99.90
50570;DHT22;36525;49.398;7.614;2022-09-09T08:50:42;18.10;99.90
50570;DHT22;36525;49.398;7.614;2022-09-09T08:53:19;18.00;99.90
50570;DHT22;36525;49.398;7.614;2022-09-09T08:55:49;18.00;99.90
50570;DHT22;36525;49.398;7.614;2022-09-09T08:58:20;18.00;99.90
50570;DHT22;36525;49.398;7.614;2022-09-09T09:01:22;18.00;99.90
50570;DHT22;36525;49.398;7.614;2022-09-09T09:12:52;17.60;99.90
50570;DHT22;36525;49.398;7.614;2022-09-09T09:15:23;17.50;99.90
50570;DHT22;36525;49.398;7.614;2022-09-09T09:17:57;17.60;99.90
50570;DHT22;36525;49.398;7.614;2022-09-09T09:20:56;17.80;99.90
50570;DHT22;36525;49.398;7.614;2022-09-09T09:23:43;18.10;99.90
50570;DHT22;36525;49.398;7.614;2022-09-09T09:26:13;19.50;99.90
50570;DHT22;36525;49.398;7.614;2022-09-09T09:28:40;20.50;99.90
50570;DHT22;36525;49.398;7.614;2022-09-09T09:31:10;20.60;99.90
50570;DHT22;36525;49.398;7.614;2022-09-09T09:33:48;20.10;99.90
50570;DHT22;36525;49.398;7.614;2022-09-09T09:36:34;19.40;99.90
50570;DHT22;36525;49.398;7.614;2022-09-09T09:39:05;19.00;99.90
50570;DHT22;36525;49.398;7.614;2022-09-09T09:41:53;18.80;99.90
50570;DHT22;36525;49.398;7.614;2022-09-09T09:44:29;18.60;99.90
50570;DHT22;36525;49.398;7.614;2022-09-09T09:47:12;18.50;99.90
50570;DHT22;36525;49.398;7.614;2022-09-09T09:50:00;18.50;99.90
50570;DHT22;36525;49.398;7.614;2022-09-09T09:52:30;18.40;99.90
50570;DHT22;36525;49.398;7.614;2022-09-09T09:55:02;18.30;99.90
50570;DHT22;36525;49.398;7.614;2022-09-09T09:57:33;18.50;99.90
50570;DHT22;36525;49.398;7.614;2022-09-09T10:00:21;18.30;99.90
50570;DHT22;36525;49.398;7.614;2022-09-09T10:02:50;18.50;99.90
50570;DHT22;36525;49.398;7.614;2022-09-09T10:05:25;19.10;99.90
50570;DHT22;36525;49.398;7.614;2022-09-09T10:08:10;19.20;99.90
50570;DHT22;36525;49.398;7.614;2022-09-09T10:11:32;19.00;99.90
50570;DHT22;36525;49.398;7.614;2022-09-09T10:17:07;20.70;99.90
50570;DHT22;36525;49.398;7.614;2022-09-09T10:19:37;21.30;99.90
50570;DHT22;36525;49.398;7.614;2022-09-09T10:22:26;20.80;99.90
50570;DHT22;36525;49.398;7.614;2022-09-09T10:33:50;20.40;99.90
50570;DHT22;36525;49.398;7.614;2022-09-09T10:36:21;20.40;99.90
50570;DHT22;36525;49.398;7.614;2022-09-09T10:50:14;19.80;99.90
50570;DHT22;36525;49.398;7.614;2022-09-09T13:24:31;24.50;99.90
50570;DHT22;36525;49.398;7.614;2022-09-09T13:27:02;25.00;99.90
50570;DHT22;36525;49.398;7.614;2022-09-09T13:29:54;25.70;99.90
50570;DHT22;36525;49.398;7.614;2022-09-09T13:32:23;23.90;99.90
50570;DHT22;36525;49.398;7.614;2022-09-09T13:34:56;22.00;99.90
50570;DHT22;36525;49.398;7.614;2022-09-09T13:37:35;20.60;99.90
50570;DHT22;36525;49.398;7.614;2022-09-09T13:42:35;18.90;99.90
50570;DHT22;36525;49.398;7.614;2022-09-09T13:45:14;18.40;99.90
50570;DHT22;36525;49.398;7.614;2022-09-09T13:47:50;18.30;99.90
50570;DHT22;36525;49.398;7.614;2022-09-09T13:52:58;20.30;99.90
50570;DHT22;36525;49.398;7.614;2022-09-09T13:55:28;20.60;99.90
50570;DHT22;36525;49.398;7.614;2022-09-09T13:57:56;20.80;99.90
50570;DHT22;36525;49.398;7.614;2022-09-09T14:00:33;20.80;99.90
50570;DHT22;36525;49.398;7.614;2022-09-09T14:03:01;20.40;99.90
50570;DHT22;36525;49.398;7.614;2022-09-09T14:05:30;19.90;99.90
50570;DHT22;36525;49.398;7.614;2022-09-09T14:07:58;19.80;99.90
50570;DHT22;36525;49.398;7.614;2022-09-09T14:10:27;19.80;99.90
50570;DHT22;36525;49.398;7.614;2022-09-09T14:12:54;19.70;99.90
50570;DHT22;36525;49.398;7.614;2022-09-09T14:15:21;19.60;99.90
50570;DHT22;36525;49.398;7.614;2022-09-09T14:17:48;19.40;99.90
50570;DHT22;36525;49.398;7.614;2022-09-09T14:20:15;19.60;99.90
50570;DHT22;36525;49.398;7.614;2022-09-09T14:22:43;19.90;99.90
50570;DHT22;36525;49.398;7.614;2022-09-09T14:25:10;20.50;99.90
50570;DHT22;36525;49.398;7.614;2022-09-09T14:27:40;20.60;99.90
50570;DHT22;36525;49.398;7.614;2022-09-09T14:35:04;25.20;99.90
50570;DHT22;36525;49.398;7.614;2022-09-09T14:37:31;26.20;99.90
50570;DHT22;36525;49.398;7.614;2022-09-09T14:39:58;26.50;99.90
50570;DHT22;36525;49.398;7.614;2022-09-09T14:42:25;26.90;99.90
50570;DHT22;36525;49.398;7.614;2022-09-09T14:44:53;26.80;99.90
50570;DHT22;36525;49.398;7.614;2022-09-09T14:47:20;27.00;99.90
50570;DHT22;36525;49.398;7.614;2022-09-09T14:49:47;26.80;99.90
50570;DHT22;36525;49.398;7.614;2022-09-09T14:52:16;26.70;99.90
50570;DHT22;36525;49.398;7.614;2022-09-09T14:54:43;26.70;99.90
50570;DHT22;36525;49.398;7.614;2022-09-09T14:57:10;27.00;99.90
50570;DHT22;36525;49.398;7.614;2022-09-09T14:59:37;26.80;99.90
50570;DHT22;36525;49.398;7.614;2022-09-09T15:02:04;26.60;99.90
50570;DHT22;36525;49.398;7.614;2022-09-09T15:04:31;26.50;99.90
50570;DHT22;36525;49.398;7.614;2022-09-09T15:06:58;26.70;99.90
50570;DHT22;36525;49.398;7.614;2022-09-09T15:09:25;26.30;99.90
50570;DHT22;36525;49.398;7.614;2022-09-09T15:11:52;24.90;99.90
50570;DHT22;36525;49.398;7.614;2022-09-09T15:14:19;25.20;99.90
50570;DHT22;36525;49.398;7.614;2022-09-09T15:16:50;25.90;99.90
50570;DHT22;36525;49.398;7.614;2022-09-09T15:21:45;25.20;99.90
50570;DHT22;36525;49.398;7.614;2022-09-09T15:24:12;25.50;99.90
50570;DHT22;36525;49.398;7.614;2022-09-09T15:26:40;25.40;99.90
50570;DHT22;36525;49.398;7.614;2022-09-09T15:29:07;24.80;99.90
50570;DHT22;36525;49.398;7.614;2022-09-09T15:31:35;25.00;99.90
50570;DHT22;36525;49.398;7.614;2022-09-09T15:34:05;24.20;99.90
50570;DHT22;36525;49.398;7.614;2022-09-09T15:36:38;23.20;99.90
50570;DHT22;36525;49.398;7.614;2022-09-09T15:39:09;22.70;99.90
50570;DHT22;36525;49.398;7.614;2022-09-09T15:41:43;22.10;99.90
50570;DHT22;36525;49.398;7.614;2022-09-09T15:44:11;21.20;99.90
50570;DHT22;36525;49.398;7.614;2022-09-09T15:51:42;20.20;99.90
50570;DHT22;36525;49.398;7.614;2022-09-09T15:54:13;19.80;99.90
50570;DHT22;36525;49.398;7.614;2022-09-09T15:59:12;19.10;99.90
50570;DHT22;36525;49.398;7.614;2022-09-09T16:04:06;18.70;99.90
50570;DHT22;36525;49.398;7.614;2022-09-09T16:06:34;18.50;99.90
50570;DHT22;36525;49.398;7.614;2022-09-09T16:09:03;18.30;99.90
50570;DHT22;36525;49.398;7.614;2022-09-09T16:11:34;18.30;99.90
50570;DHT22;36525;49.398;7.614;2022-09-09T16:14:02;18.20;99.90
50570;DHT22;36525;49.398;7.614;2022-09-09T16:16:30;18.20;99.90
50570;DHT22;36525;49.398;7.614;2022-09-09T16:19:00;18.10;99.90
50570;DHT22;36525;49.398;7.614;2022-09-09T16:21:56;18.10;99.90
50570;DHT22;36525;49.398;7.614;2022-09-09T16:24:23;18.00;99.90
50570;DHT22;36525;49.398;7.614;2022-09-09T16:26:52;17.90;99.90
50570;DHT22;36525;49.398;7.614;2022-09-09T16:29:21;17.80;99.90
50570;DHT22;36525;49.398;7.614;2022-09-09T16:31:49;17.40;99.90
50570;DHT22;36525;49.398;7.614;2022-09-09T16:34:17;16.90;99.90
50570;DHT22;36525;49.398;7.614;2022-09-09T16:36:46;15.70;99.90
50570;DHT22;36525;49.398;7.614;2022-09-09T16:39:17;15.00;99.90
50570;DHT22;36525;49.398;7.614;2022-09-09T16:41:47;14.50;99.90
50570;DHT22;36525;49.398;7.614;2022-09-09T16:44:16;14.30;99.90
50570;DHT22;36525;49.398;7.614;2022-09-09T16:46:46;14.20;99.90
50570;DHT22;36525;49.398;7.614;2022-09-09T16:49:15;14.10;99.90
50570;DHT22;36525;49.398;7.614;2022-09-09T16:51:45;14.10;99.90
50570;DHT22;36525;49.398;7.614;2022-09-09T16:54:19;14.10;99.90
50570;DHT22;36525;49.398;7.614;2022-09-09T16:56:47;14.10;99.90
50570;DHT22;36525;49.398;7.614;2022-09-09T16:59:17;14.00;99.90
50570;DHT22;36525;49.398;7.614;2022-09-09T17:01:47;13.80;99.90
50570;DHT22;36525;49.398;7.614;2022-09-09T17:04:17;13.70;99.90
50570;DHT22;36525;49.398;7.614;2022-09-09T17:06:52;13.70;99.90
50570;DHT22;36525;49.398;7.614;2022-09-09T17:09:22;13.50;99.90
50570;DHT22;36525;49.398;7.614;2022-09-09T17:11:49;13.40;99.90
50570;DHT22;36525;49.398;7.614;2022-09-09T17:14:20;13.50;99.90
50570;DHT22;36525;49.398;7.614;2022-09-09T17:16:48;13.60;99.90
50570;DHT22;36525;49.398;7.614;2022-09-09T17:19:15;13.80;99.90
50570;DHT22;36525;49.398;7.614;2022-09-09T17:21:42;13.80;99.90
50570;DHT22;36525;49.398;7.614;2022-09-09T17:24:29;13.80;99.90
50570;DHT22;36525;49.398;7.614;2022-09-09T17:26:57;13.80;99.90
50570;DHT22;36525;49.398;7.614;2022-09-09T17:29:25;13.80;99.90
50570;DHT22;36525;49.398;7.614;2022-09-09T17:31:52;13.70;99.90
50570;DHT22;36525;49.398;7.614;2022-09-09T17:34:19;13.70;99.90
50570;DHT22;36525;49.398;7.614;2022-09-09T17:36:46;13.70;99.90
50570;DHT22;36525;49.398;7.614;2022-09-09T17:39:13;13.70;99.90
50570;DHT22;36525;49.398;7.614;2022-09-09T17:41:40;13.60;99.90
50570;DHT22;36525;49.398;7.614;2022-09-09T17:44:08;13.70;99.90
50570;DHT22;36525;49.398;7.614;2022-09-09T17:46:38;13.60;99.90
50570;DHT22;36525;49.398;7.614;2022-09-09T17:49:10;13.60;99.90
50570;DHT22;36525;49.398;7.614;2022-09-09T17:51:40;13.60;99.90
50570;DHT22;36525;49.398;7.614;2022-09-09T17:54:14;13.50;99.90
50570;DHT22;36525;49.398;7.614;2022-09-09T17:56:43;13.50;99.90
50570;DHT22;36525;49.398;7.614;2022-09-09T17:59:12;13.50;99.90
50570;DHT22;36525;49.398;7.614;2022-09-09T18:01:42;13.50;99.90
50570;DHT22;36525;49.398;7.614;2022-09-09T18:04:13;13.40;99.90
50570;DHT22;36525;49.398;7.614;2022-09-09T18:06:43;13.50;99.90
50570;DHT22;36525;49.398;7.614;2022-09-09T18:09:20;13.40;99.90
50570;DHT22;36525;49.398;7.614;2022-09-09T18:11:51;13.40;99.90
50570;DHT22;36525;49.398;7.614;2022-09-09T18:14:23;13.40;99.90
50570;DHT22;36525;49.398;7.614;2022-09-09T18:16:52;13.50;99.90
50570;DHT22;36525;49.398;7.614;2022-09-09T18:19:21;13.50;99.90
50570;DHT22;36525;49.398;7.614;2022-09-09T18:21:50;13.50;99.90
50570;DHT22;36525;49.398;7.614;2022-09-09T18:24:20;13.60;99.90
50570;DHT22;36525;49.398;7.614;2022-09-09T18:26:49;13.60;99.90
50570;DHT22;36525;49.398;7.614;2022-09-09T18:29:18;13.60;99.90
50570;DHT22;36525;49.398;7.614;2022-09-09T18:31:47;13.70;99.90
50570;DHT22;36525;49.398;7.614;2022-09-09T18:34:16;13.80;99.90
50570;DHT22;36525;49.398;7.614;2022-09-09T18:36:46;13.80;99.90
50570;DHT22;36525;49.398;7.614;2022-09-09T18:39:16;13.80;99.90
50570;DHT22;36525;49.398;7.614;2022-09-09T18:41:47;13.80;99.90
50570;DHT22;36525;49.398;7.614;2022-09-09T18:44:17;13.80;99.90
50570;DHT22;36525;49.398;7.614;2022-09-09T18:46:48;13.80;99.90
50570;DHT22;36525;49.398;7.614;2022-09-09T18:49:15;13.90;99.90
50570;DHT22;36525;49.398;7.614;2022-09-09T18:51:44;13.90;99.90
50570;DHT22;36525;49.398;7.614;2022-09-09T18:54:14;13.90;99.90
50570;DHT22;36525;49.398;7.614;2022-09-09T18:56:42;13.90;99.90
50570;DHT22;36525;49.398;7.614;2022-09-09T18:59:12;13.90;99.90
50570;DHT22;36525;49.398;7.614;2022-09-09T19:01:41;13.90;99.90
50570;DHT22;36525;49.398;7.614;2022-09-09T19:04:08;14.00;99.90
50570;DHT22;36525;49.398;7.614;2022-09-09T19:06:39;14.00;99.90
50570;DHT22;36525;49.398;7.614;2022-09-09T19:09:12;14.00;99.90
50570;DHT22;36525;49.398;7.614;2022-09-09T19:11:41;14.00;99.90
50570;DHT22;36525;49.398;7.614;2022-09-09T19:14:12;14.00;99.90
50570;DHT22;36525;49.398;7.614;2022-09-09T19:16:41;14.10;99.90
50570;DHT22;36525;49.398;7.614;2022-09-09T19:19:12;14.10;99.90
50570;DHT22;36525;49.398;7.614;2022-09-09T19:21:42;14.10;99.90
50570;DHT22;36525;49.398;7.614;2022-09-09T19:24:13;14.10;99.90
50570;DHT22;36525;49.398;7.614;2022-09-09T19:26:45;14.00;99.90
50570;DHT22;36525;49.398;7.614;2022-09-09T19:29:24;14.00;99.90
50570;DHT22;36525;49.398;7.614;2022-09-09T19:31:55;14.00;99.90
50570;DHT22;36525;49.398;7.614;2022-09-09T19:34:43;13.90;99.90
50570;DHT22;36525;49.398;7.614;2022-09-09T19:37:10;13.90;99.90
50570;DHT22;36525;49.398;7.614;2022-09-09T19:39:44;13.90;99.90
50570;DHT22;36525;49.398;7.614;2022-09-09T19:42:12;14.00;99.90
50570;DHT22;36525;49.398;7.614;2022-09-09T19:44:39;14.00;99.90
50570;DHT22;36525;49.398;7.614;2022-09-09T19:47:07;13.90;99.90
50570;DHT22;36525;49.398;7.614;2022-09-09T19:49:34;13.80;99.90
50570;DHT22;36525;49.398;7.614;2022-09-09T19:52:03;13.70;99.90
50570;DHT22;36525;49.398;7.614;2022-09-09T19:54:29;13.70;99.90
50570;DHT22;36525;49.398;7.614;2022-09-09T19:56:56;13.60;99.90
50570;DHT22;36525;49.398;7.614;2022-09-09T19:59:24;13.60;99.90